sensor_id;sensor_type;location;lat;lon;timestamp;temperature;humidity
68433;DHT22;55412;51.350;17.056;2022-11-03T00:01:07;8.90;71.00
68433;DHT22;55412;51.350;17.056;2022-11-03T00:03:33;8.90;71.00
68433;DHT22;55412;51.350;17.056;2022-11-03T00:06:01;8.90;71.10
68433;DHT22;55412;51.350;17.056;2022-11-03T00:08:39;8.90;71.00
68433;DHT22;55412;51.350;17.056;2022-11-03T00:11:11;9.00;70.60
68433;DHT22;55412;51.350;17.056;2022-11-03T00:13:40;8.90;70.40
68433;DHT22;55412;51.350;17.056;2022-11-03T00:16:09;8.80;70.40
68433;DHT22;55412;51.350;17.056;2022-11-03T00:18:36;8.80;70.70
68433;DHT22;55412;51.350;17.056;2022-11-03T00:21:08;8.80;70.60
68433;DHT22;55412;51.350;17.056;2022-11-03T00:23:38;8.70;70.40
68433;DHT22;55412;51.350;17.056;2022-11-03T00:26:18;8.60;70.10
68433;DHT22;55412;51.350;17.056;2022-11-03T00:28:49;8.40;70.50
68433;DHT22;55412;51.350;17.056;2022-11-03T00:31:27;8.30;71.30
68433;DHT22;55412;51.350;17.056;2022-11-03T00:33:55;8.30;71.60
68433;DHT22;55412;51.350;17.056;2022-11-03T00:36:26;8.20;71.90
68433;DHT22;55412;51.350;17.056;2022-11-03T00:38:57;8.30;72.00
68433;DHT22;55412;51.350;17.056;2022-11-03T00:41:24;8.30;72.10
68433;DHT22;55412;51.350;17.056;2022-11-03T00:43:51;8.30;71.90
68433;DHT22;55412;51.350;17.056;2022-11-03T00:46:19;8.30;71.70
68433;DHT22;55412;51.350;17.056;2022-11-03T00:48:46;8.20;72.10
68433;DHT22;55412;51.350;17.056;2022-11-03T00:51:21;8.20;72.00
68433;DHT22;55412;51.350;17.056;2022-11-03T00:53:51;8.20;72.00
68433;DHT22;55412;51.350;17.056;2022-11-03T00:56:26;8.20;72.00
68433;DHT22;55412;51.350;17.056;2022-11-03T00:58:55;8.00;71.50
68433;DHT22;55412;51.350;17.056;2022-11-03T01:01:30;7.80;71.60
68433;DHT22;55412;51.350;17.056;2022-11-03T01:03:58;7.60;72.20
68433;DHT22;55412;51.350;17.056;2022-11-03T01:06:45;7.50;72.40
68433;DHT22;55412;51.350;17.056;2022-11-03T01:09:26;7.40;72.40
68433;DHT22;55412;51.350;17.056;2022-11-03T01:11:58;7.30;73.50
68433;DHT22;55412;51.350;17.056;2022-11-03T01:14:37;7.40;75.10
68433;DHT22;55412;51.350;17.056;2022-11-03T01:17:14;7.60;74.90
68433;DHT22;55412;51.350;17.056;2022-11-03T01:19:47;7.70;74.80
68433;DHT22;55412;51.350;17.056;2022-11-03T01:22:15;7.70;73.00
68433;DHT22;55412;51.350;17.056;2022-11-03T01:24:42;7.50;71.60
68433;DHT22;55412;51.350;17.056;2022-11-03T01:27:14;7.30;71.60
68433;DHT22;55412;51.350;17.056;2022-11-03T01:29:42;7.20;72.80
68433;DHT22;55412;51.350;17.056;2022-11-03T01:32:08;7.00;72.50
68433;DHT22;55412;51.350;17.056;2022-11-03T01:34:35;6.90;74.40
68433;DHT22;55412;51.350;17.056;2022-11-03T01:37:02;7.00;75.50
68433;DHT22;55412;51.350;17.056;2022-11-03T01:39:28;7.00;75.80
68433;DHT22;55412;51.350;17.056;2022-11-03T01:41:55;7.10;75.40
68433;DHT22;55412;51.350;17.056;2022-11-03T01:44:33;7.20;75.80
68433;DHT22;55412;51.350;17.056;2022-11-03T01:47:20;7.30;75.40
68433;DHT22;55412;51.350;17.056;2022-11-03T01:49:54;7.40;75.10
68433;DHT22;55412;51.350;17.056;2022-11-03T01:52:48;7.40;74.90
68433;DHT22;55412;51.350;17.056;2022-11-03T01:55:20;7.50;74.70
68433;DHT22;55412;51.350;17.056;2022-11-03T01:57:56;7.40;74.20
68433;DHT22;55412;51.350;17.056;2022-11-03T02:00:25;7.50;73.80
68433;DHT22;55412;51.350;17.056;2022-11-03T02:02:55;7.50;73.60
68433;DHT22;55412;51.350;17.056;2022-11-03T02:05:23;7.50;73.00
68433;DHT22;55412;51.350;17.056;2022-11-03T02:08:04;7.30;73.90
68433;DHT22;55412;51.350;17.056;2022-11-03T02:10:33;7.40;74.10
68433;DHT22;55412;51.350;17.056;2022-11-03T02:13:02;7.40;74.40
68433;DHT22;55412;51.350;17.056;2022-11-03T02:15:35;7.40;74.20
68433;DHT22;55412;51.350;17.056;2022-11-03T02:18:01;7.40;74.20
68433;DHT22;55412;51.350;17.056;2022-11-03T02:20:31;7.40;74.40
68433;DHT22;55412;51.350;17.056;2022-11-03T02:23:08;7.50;74.20
68433;DHT22;55412;51.350;17.056;2022-11-03T02:25:45;7.60;73.90
68433;DHT22;55412;51.350;17.056;2022-11-03T02:28:15;7.50;73.60
68433;DHT22;55412;51.350;17.056;2022-11-03T02:33:40;7.50;72.90
68433;DHT22;55412;51.350;17.056;2022-11-03T02:36:16;7.40;72.00
68433;DHT22;55412;51.350;17.056;2022-11-03T02:39:00;7.20;73.10
68433;DHT22;55412;51.350;17.056;2022-11-03T02:41:29;7.10;73.90
68433;DHT22;55412;51.350;17.056;2022-11-03T02:43:58;7.00;74.20
68433;DHT22;55412;51.350;17.056;2022-11-03T02:46:25;7.00;74.20
68433;DHT22;55412;51.350;17.056;2022-11-03T02:48:52;6.90;74.20
68433;DHT22;55412;51.350;17.056;2022-11-03T02:51:18;6.90;74.50
68433;DHT22;55412;51.350;17.056;2022-11-03T02:54:00;6.80;74.30
68433;DHT22;55412;51.350;17.056;2022-11-03T02:56:28;6.80;74.60
68433;DHT22;55412;51.350;17.056;2022-11-03T02:59:05;6.80;73.90
68433;DHT22;55412;51.350;17.056;2022-11-03T03:01:45;6.70;74.40
68433;DHT22;55412;51.350;17.056;2022-11-03T03:04:19;6.70;74.80
68433;DHT22;55412;51.350;17.056;2022-11-03T03:07:22;6.60;75.10
68433;DHT22;55412;51.350;17.056;2022-11-03T03:10:05;6.60;75.10
68433;DHT22;55412;51.350;17.056;2022-11-03T03:12:37;6.60;75.80
68433;DHT22;55412;51.350;17.056;2022-11-03T03:15:07;6.60;75.80
68433;DHT22;55412;51.350;17.056;2022-11-03T03:20:11;6.60;76.10
68433;DHT22;55412;51.350;17.056;2022-11-03T03:22:48;6.60;76.20
68433;DHT22;55412;51.350;17.056;2022-11-03T03:25:24;6.60;75.90
68433;DHT22;55412;51.350;17.056;2022-11-03T03:27:59;6.60;75.90
68433;DHT22;55412;51.350;17.056;2022-11-03T03:30:32;6.50;76.20
68433;DHT22;55412;51.350;17.056;2022-11-03T03:33:01;6.50;76.40
68433;DHT22;55412;51.350;17.056;2022-11-03T03:35:29;6.40;76.80
68433;DHT22;55412;51.350;17.056;2022-11-03T03:38:01;6.40;77.60
68433;DHT22;55412;51.350;17.056;2022-11-03T03:40:35;6.30;78.10
68433;DHT22;55412;51.350;17.056;2022-11-03T03:43:05;6.30;78.40
68433;DHT22;55412;51.350;17.056;2022-11-03T03:45:34;6.30;79.00
68433;DHT22;55412;51.350;17.056;2022-11-03T03:48:02;6.30;79.40
68433;DHT22;55412;51.350;17.056;2022-11-03T03:50:32;6.30;79.20
68433;DHT22;55412;51.350;17.056;2022-11-03T03:53:05;6.20;79.40
68433;DHT22;55412;51.350;17.056;2022-11-03T03:55:41;6.20;79.30
68433;DHT22;55412;51.350;17.056;2022-11-03T03:58:13;6.20;79.30
68433;DHT22;55412;51.350;17.056;2022-11-03T04:00:40;6.20;79.30
68433;DHT22;55412;51.350;17.056;2022-11-03T04:03:33;6.10;79.00
68433;DHT22;55412;51.350;17.056;2022-11-03T04:05:59;6.00;78.80
68433;DHT22;55412;51.350;17.056;2022-11-03T04:08:25;6.00;78.50
68433;DHT22;55412;51.350;17.056;2022-11-03T04:10:51;6.00;77.90
68433;DHT22;55412;51.350;17.056;2022-11-03T04:13:35;5.80;77.70
68433;DHT22;55412;51.350;17.056;2022-11-03T04:16:20;5.80;78.30
68433;DHT22;55412;51.350;17.056;2022-11-03T04:19:05;5.80;79.30
68433;DHT22;55412;51.350;17.056;2022-11-03T04:21:51;5.80;79.70
68433;DHT22;55412;51.350;17.056;2022-11-03T04:24:35;6.10;79.80
68433;DHT22;55412;51.350;17.056;2022-11-03T04:27:27;6.40;78.90
68433;DHT22;55412;51.350;17.056;2022-11-03T04:30:15;6.50;78.10
68433;DHT22;55412;51.350;17.056;2022-11-03T04:32:47;6.60;77.20
68433;DHT22;55412;51.350;17.056;2022-11-03T04:35:32;6.70;76.90
68433;DHT22;55412;51.350;17.056;2022-11-03T04:38:02;6.70;76.50
68433;DHT22;55412;51.350;17.056;2022-11-03T04:40:33;6.70;76.10
68433;DHT22;55412;51.350;17.056;2022-11-03T04:42:59;6.70;75.90
68433;DHT22;55412;51.350;17.056;2022-11-03T04:45:31;6.60;76.00
68433;DHT22;55412;51.350;17.056;2022-11-03T04:48:01;6.60;75.90
68433;DHT22;55412;51.350;17.056;2022-11-03T04:50:39;6.50;76.00
68433;DHT22;55412;51.350;17.056;2022-11-03T04:53:11;6.50;76.00
68433;DHT22;55412;51.350;17.056;2022-11-03T04:55:43;6.40;76.30
68433;DHT22;55412;51.350;17.056;2022-11-03T04:58:21;6.40;76.30
68433;DHT22;55412;51.350;17.056;2022-11-03T05:00:56;6.30;76.60
68433;DHT22;55412;51.350;17.056;2022-11-03T05:03:29;6.30;76.70
68433;DHT22;55412;51.350;17.056;2022-11-03T05:06:00;6.20;77.00
68433;DHT22;55412;51.350;17.056;2022-11-03T05:08:27;6.10;77.30
68433;DHT22;55412;51.350;17.056;2022-11-03T05:10:53;6.10;77.10
68433;DHT22;55412;51.350;17.056;2022-11-03T05:13:24;6.10;77.00
68433;DHT22;55412;51.350;17.056;2022-11-03T05:15:58;6.10;77.10
68433;DHT22;55412;51.350;17.056;2022-11-03T05:18:32;6.10;77.00
68433;DHT22;55412;51.350;17.056;2022-11-03T05:21:10;6.10;77.00
68433;DHT22;55412;51.350;17.056;2022-11-03T05:23:40;6.10;77.00
68433;DHT22;55412;51.350;17.056;2022-11-03T05:26:15;6.10;77.10
68433;DHT22;55412;51.350;17.056;2022-11-03T05:29:12;6.10;77.40
68433;DHT22;55412;51.350;17.056;2022-11-03T05:31:36;6.10;77.40
68433;DHT22;55412;51.350;17.056;2022-11-03T05:34:34;6.20;77.50
68433;DHT22;55412;51.350;17.056;2022-11-03T05:39:41;6.20;76.90
68433;DHT22;55412;51.350;17.056;2022-11-03T05:42:31;6.20;76.80
68433;DHT22;55412;51.350;17.056;2022-11-03T05:45:01;6.10;76.70
68433;DHT22;55412;51.350;17.056;2022-11-03T05:47:37;6.10;76.60
68433;DHT22;55412;51.350;17.056;2022-11-03T05:50:19;6.10;75.60
68433;DHT22;55412;51.350;17.056;2022-11-03T05:52:49;5.90;75.60
68433;DHT22;55412;51.350;17.056;2022-11-03T05:55:22;5.80;76.30
68433;DHT22;55412;51.350;17.056;2022-11-03T05:57:55;5.60;76.80
68433;DHT22;55412;51.350;17.056;2022-11-03T06:00:29;5.50;77.70
68433;DHT22;55412;51.350;17.056;2022-11-03T06:02:58;5.50;77.70
68433;DHT22;55412;51.350;17.056;2022-11-03T06:05:25;5.60;76.90
68433;DHT22;55412;51.350;17.056;2022-11-03T06:07:54;5.70;76.60
68433;DHT22;55412;51.350;17.056;2022-11-03T06:10:29;5.80;75.70
68433;DHT22;55412;51.350;17.056;2022-11-03T06:13:10;6.00;77.10
68433;DHT22;55412;51.350;17.056;2022-11-03T06:15:41;6.40;77.50
68433;DHT22;55412;51.350;17.056;2022-11-03T06:18:22;6.80;76.30
68433;DHT22;55412;51.350;17.056;2022-11-03T06:21:18;7.10;74.60
68433;DHT22;55412;51.350;17.056;2022-11-03T06:23:45;7.50;74.80
68433;DHT22;55412;51.350;17.056;2022-11-03T06:26:18;7.90;72.70
68433;DHT22;55412;51.350;17.056;2022-11-03T06:28:46;8.40;71.60
68433;DHT22;55412;51.350;17.056;2022-11-03T06:31:23;8.60;68.10
68433;DHT22;55412;51.350;17.056;2022-11-03T06:33:52;8.80;68.10
68433;DHT22;55412;51.350;17.056;2022-11-03T06:36:30;8.80;66.80
68433;DHT22;55412;51.350;17.056;2022-11-03T06:39:01;9.20;65.80
68433;DHT22;55412;51.350;17.056;2022-11-03T06:41:31;9.30;65.80
68433;DHT22;55412;51.350;17.056;2022-11-03T06:44:02;9.10;67.10
68433;DHT22;55412;51.350;17.056;2022-11-03T06:46:46;9.20;68.70
68433;DHT22;55412;51.350;17.056;2022-11-03T06:49:30;9.60;67.50
68433;DHT22;55412;51.350;17.056;2022-11-03T06:52:04;10.20;66.00
68433;DHT22;55412;51.350;17.056;2022-11-03T06:54:38;10.50;64.70
68433;DHT22;55412;51.350;17.056;2022-11-03T06:57:11;10.80;64.10
68433;DHT22;55412;51.350;17.056;2022-11-03T06:59:39;11.10;62.90
68433;DHT22;55412;51.350;17.056;2022-11-03T07:04:50;11.50;61.90
68433;DHT22;55412;51.350;17.056;2022-11-03T07:07:17;11.70;61.80
68433;DHT22;55412;51.350;17.056;2022-11-03T07:09:43;12.10;60.30
68433;DHT22;55412;51.350;17.056;2022-11-03T07:12:14;12.40;60.10
68433;DHT22;55412;51.350;17.056;2022-11-03T07:14:41;12.60;59.80
68433;DHT22;55412;51.350;17.056;2022-11-03T07:17:17;12.70;59.60
68433;DHT22;55412;51.350;17.056;2022-11-03T07:19:46;12.90;58.90
68433;DHT22;55412;51.350;17.056;2022-11-03T07:22:24;13.10;59.90
68433;DHT22;55412;51.350;17.056;2022-11-03T07:24:53;13.40;58.60
68433;DHT22;55412;51.350;17.056;2022-11-03T07:27:24;14.30;57.10
68433;DHT22;55412;51.350;17.056;2022-11-03T07:29:56;15.30;53.90
68433;DHT22;55412;51.350;17.056;2022-11-03T07:32:29;16.10;52.30
68433;DHT22;55412;51.350;17.056;2022-11-03T07:37:43;17.80;47.80
68433;DHT22;55412;51.350;17.056;2022-11-03T07:40:16;17.80;46.70
68433;DHT22;55412;51.350;17.056;2022-11-03T07:42:44;18.00;46.60
68433;DHT22;55412;51.350;17.056;2022-11-03T07:45:47;18.60;45.50
68433;DHT22;55412;51.350;17.056;2022-11-03T07:48:33;18.70;43.90
68433;DHT22;55412;51.350;17.056;2022-11-03T07:53:50;16.70;48.20
68433;DHT22;55412;51.350;17.056;2022-11-03T07:56:29;16.10;49.30
68433;DHT22;55412;51.350;17.056;2022-11-03T07:59:00;15.40;51.00
68433;DHT22;55412;51.350;17.056;2022-11-03T08:01:40;15.10;52.20
68433;DHT22;55412;51.350;17.056;2022-11-03T08:04:32;15.00;53.10
68433;DHT22;55412;51.350;17.056;2022-11-03T08:07:09;14.90;52.90
68433;DHT22;55412;51.350;17.056;2022-11-03T08:09:35;14.80;53.10
68433;DHT22;55412;51.350;17.056;2022-11-03T08:12:01;14.70;53.40
68433;DHT22;55412;51.350;17.056;2022-11-03T08:14:27;14.60;53.10
68433;DHT22;55412;51.350;17.056;2022-11-03T08:16:53;14.40;54.10
68433;DHT22;55412;51.350;17.056;2022-11-03T08:19:19;14.20;54.60
68433;DHT22;55412;51.350;17.056;2022-11-03T08:21:45;14.50;54.80
68433;DHT22;55412;51.350;17.056;2022-11-03T08:24:11;14.80;54.60
68433;DHT22;55412;51.350;17.056;2022-11-03T08:26:36;14.90;54.20
68433;DHT22;55412;51.350;17.056;2022-11-03T08:29:08;15.00;53.80
68433;DHT22;55412;51.350;17.056;2022-11-03T08:31:34;15.20;54.90
68433;DHT22;55412;51.350;17.056;2022-11-03T08:34:00;15.50;51.40
68433;DHT22;55412;51.350;17.056;2022-11-03T08:36:26;15.40;51.30
68433;DHT22;55412;51.350;17.056;2022-11-03T08:38:52;15.10;51.40
68433;DHT22;55412;51.350;17.056;2022-11-03T08:41:21;15.20;52.00
68433;DHT22;55412;51.350;17.056;2022-11-03T08:43:47;15.40;52.10
68433;DHT22;55412;51.350;17.056;2022-11-03T08:46:13;15.80;51.30
68433;DHT22;55412;51.350;17.056;2022-11-03T08:48:39;15.90;51.80
68433;DHT22;55412;51.350;17.056;2022-11-03T08:51:06;15.80;51.40
68433;DHT22;55412;51.350;17.056;2022-11-03T08:53:38;16.00;50.70
68433;DHT22;55412;51.350;17.056;2022-11-03T08:56:07;15.90;51.50
68433;DHT22;55412;51.350;17.056;2022-11-03T08:58:33;16.00;50.80
68433;DHT22;55412;51.350;17.056;2022-11-03T09:00:59;16.10;50.60
68433;DHT22;55412;51.350;17.056;2022-11-03T09:03:25;16.20;50.60
68433;DHT22;55412;51.350;17.056;2022-11-03T09:05:51;16.40;49.50
68433;DHT22;55412;51.350;17.056;2022-11-03T09:08:26;16.30;49.10
68433;DHT22;55412;51.350;17.056;2022-11-03T09:10:52;16.30;49.60
68433;DHT22;55412;51.350;17.056;2022-11-03T09:13:18;16.20;49.50
68433;DHT22;55412;51.350;17.056;2022-11-03T09:15:44;16.00;49.70
68433;DHT22;55412;51.350;17.056;2022-11-03T09:18:10;15.80;51.10
68433;DHT22;55412;51.350;17.056;2022-11-03T09:20:36;15.10;52.10
68433;DHT22;55412;51.350;17.056;2022-11-03T09:23:08;14.50;54.50
68433;DHT22;55412;51.350;17.056;2022-11-03T09:25:34;14.30;54.10
68433;DHT22;55412;51.350;17.056;2022-11-03T09:28:00;14.20;55.30
68433;DHT22;55412;51.350;17.056;2022-11-03T09:30:29;14.00;56.00
68433;DHT22;55412;51.350;17.056;2022-11-03T09:32:55;13.80;55.30
68433;DHT22;55412;51.350;17.056;2022-11-03T09:35:21;13.60;56.40
68433;DHT22;55412;51.350;17.056;2022-11-03T09:37:47;13.60;57.00
68433;DHT22;55412;51.350;17.056;2022-11-03T09:40:22;13.60;57.20
68433;DHT22;55412;51.350;17.056;2022-11-03T09:42:50;14.00;56.80
68433;DHT22;55412;51.350;17.056;2022-11-03T09:45:16;14.10;56.00
68433;DHT22;55412;51.350;17.056;2022-11-03T09:47:43;14.20;56.20
68433;DHT22;55412;51.350;17.056;2022-11-03T09:50:15;14.10;56.60
68433;DHT22;55412;51.350;17.056;2022-11-03T09:52:44;14.40;55.80
68433;DHT22;55412;51.350;17.056;2022-11-03T09:55:24;14.50;55.10
68433;DHT22;55412;51.350;17.056;2022-11-03T09:57:53;14.60;56.00
68433;DHT22;55412;51.350;17.056;2022-11-03T10:00:21;14.60;55.30
68433;DHT22;55412;51.350;17.056;2022-11-03T10:02:49;15.10;54.80
68433;DHT22;55412;51.350;17.056;2022-11-03T10:05:26;15.60;53.20
68433;DHT22;55412;51.350;17.056;2022-11-03T10:07:59;16.20;52.10
68433;DHT22;55412;51.350;17.056;2022-11-03T10:10:35;16.90;51.50
68433;DHT22;55412;51.350;17.056;2022-11-03T10:13:21;17.10;50.00
68433;DHT22;55412;51.350;17.056;2022-11-03T10:15:55;17.50;48.70
68433;DHT22;55412;51.350;17.056;2022-11-03T10:18:23;18.20;47.40
68433;DHT22;55412;51.350;17.056;2022-11-03T10:20:49;18.60;46.20
68433;DHT22;55412;51.350;17.056;2022-11-03T10:23:15;19.20;45.90
68433;DHT22;55412;51.350;17.056;2022-11-03T10:25:42;19.10;45.70
68433;DHT22;55412;51.350;17.056;2022-11-03T10:28:24;19.10;45.00
68433;DHT22;55412;51.350;17.056;2022-11-03T10:30:55;19.10;44.80
68433;DHT22;55412;51.350;17.056;2022-11-03T10:33:38;19.80;43.90
68433;DHT22;55412;51.350;17.056;2022-11-03T10:38:40;22.20;40.70
68433;DHT22;55412;51.350;17.056;2022-11-03T10:41:21;23.40;38.40
68433;DHT22;55412;51.350;17.056;2022-11-03T10:44:18;23.80;37.00
68433;DHT22;55412;51.350;17.056;2022-11-03T10:47:00;24.90;35.80
68433;DHT22;55412;51.350;17.056;2022-11-03T10:49:29;25.10;33.90
68433;DHT22;55412;51.350;17.056;2022-11-03T10:52:22;24.80;34.30
68433;DHT22;55412;51.350;17.056;2022-11-03T10:54:51;24.70;34.40
68433;DHT22;55412;51.350;17.056;2022-11-03T10:57:19;24.10;35.20
68433;DHT22;55412;51.350;17.056;2022-11-03T10:59:48;24.90;34.80
68433;DHT22;55412;51.350;17.056;2022-11-03T11:02:24;25.50;33.90
68433;DHT22;55412;51.350;17.056;2022-11-03T11:05:01;25.50;32.90
68433;DHT22;55412;51.350;17.056;2022-11-03T11:07:41;25.80;33.20
68433;DHT22;55412;51.350;17.056;2022-11-03T11:10:17;26.30;32.20
68433;DHT22;55412;51.350;17.056;2022-11-03T11:15:58;26.80;31.70
68433;DHT22;55412;51.350;17.056;2022-11-03T11:23:45;26.80;31.10
68433;DHT22;55412;51.350;17.056;2022-11-03T11:42:15;27.00;30.30
68433;DHT22;55412;51.350;17.056;2022-11-03T11:47:31;28.20;29.80
68433;DHT22;55412;51.350;17.056;2022-11-03T11:52:31;27.40;30.50
68433;DHT22;55412;51.350;17.056;2022-11-03T11:55:05;26.90;31.50
68433;DHT22;55412;51.350;17.056;2022-11-03T11:57:44;26.00;32.50
68433;DHT22;55412;51.350;17.056;2022-11-03T12:00:22;26.30;32.20
68433;DHT22;55412;51.350;17.056;2022-11-03T12:02:51;26.60;31.30
68433;DHT22;55412;51.350;17.056;2022-11-03T12:05:20;26.90;31.50
68433;DHT22;55412;51.350;17.056;2022-11-03T12:07:53;27.50;31.10
68433;DHT22;55412;51.350;17.056;2022-11-03T12:10:21;28.60;29.40
68433;DHT22;55412;51.350;17.056;2022-11-03T12:12:53;28.40;29.60
68433;DHT22;55412;51.350;17.056;2022-11-03T12:15:49;26.50;31.30
68433;DHT22;55412;51.350;17.056;2022-11-03T12:18:48;27.60;30.90
68433;DHT22;55412;51.350;17.056;2022-11-03T12:21:44;27.60;30.40
68433;DHT22;55412;51.350;17.056;2022-11-03T12:27:14;23.50;35.10
68433;DHT22;55412;51.350;17.056;2022-11-03T12:29:42;21.50;37.70
68433;DHT22;55412;51.350;17.056;2022-11-03T12:32:08;19.80;40.40
68433;DHT22;55412;51.350;17.056;2022-11-03T12:34:34;18.20;43.50
68433;DHT22;55412;51.350;17.056;2022-11-03T12:37:00;17.40;45.30
68433;DHT22;55412;51.350;17.056;2022-11-03T12:39:29;16.80;47.20
68433;DHT22;55412;51.350;17.056;2022-11-03T12:42:05;16.30;48.70
68433;DHT22;55412;51.350;17.056;2022-11-03T12:44:32;16.10;48.90
68433;DHT22;55412;51.350;17.056;2022-11-03T12:47:04;15.70;50.20
68433;DHT22;55412;51.350;17.056;2022-11-03T12:49:32;15.40;50.10
68433;DHT22;55412;51.350;17.056;2022-11-03T12:52:04;15.20;50.60
68433;DHT22;55412;51.350;17.056;2022-11-03T12:54:32;15.00;51.20
68433;DHT22;55412;51.350;17.056;2022-11-03T12:56:59;14.80;51.90
68433;DHT22;55412;51.350;17.056;2022-11-03T12:59:25;14.70;52.30
68433;DHT22;55412;51.350;17.056;2022-11-03T13:01:51;14.80;52.60
68433;DHT22;55412;51.350;17.056;2022-11-03T13:04:17;14.90;51.90
68433;DHT22;55412;51.350;17.056;2022-11-03T13:06:43;14.90;51.90
68433;DHT22;55412;51.350;17.056;2022-11-03T13:09:13;14.70;52.80
68433;DHT22;55412;51.350;17.056;2022-11-03T13:11:39;14.60;52.50
68433;DHT22;55412;51.350;17.056;2022-11-03T13:14:24;14.30;53.90
68433;DHT22;55412;51.350;17.056;2022-11-03T13:16:51;14.30;54.10
68433;DHT22;55412;51.350;17.056;2022-11-03T13:19:17;14.30;54.80
68433;DHT22;55412;51.350;17.056;2022-11-03T13:21:43;14.20;54.20
68433;DHT22;55412;51.350;17.056;2022-11-03T13:24:09;14.30;53.80
68433;DHT22;55412;51.350;17.056;2022-11-03T13:26:35;14.30;54.90
68433;DHT22;55412;51.350;17.056;2022-11-03T13:29:01;14.30;54.50
68433;DHT22;55412;51.350;17.056;2022-11-03T13:31:30;14.20;54.90
68433;DHT22;55412;51.350;17.056;2022-11-03T13:33:55;14.20;55.40
68433;DHT22;55412;51.350;17.056;2022-11-03T13:36:21;14.00;55.50
68433;DHT22;55412;51.350;17.056;2022-11-03T13:38:47;13.90;55.60
68433;DHT22;55412;51.350;17.056;2022-11-03T13:41:13;13.90;55.80
68433;DHT22;55412;51.350;17.056;2022-11-03T13:43:39;13.70;56.40
68433;DHT22;55412;51.350;17.056;2022-11-03T13:46:05;13.60;56.50
68433;DHT22;55412;51.350;17.056;2022-11-03T13:48:31;13.50;57.10
68433;DHT22;55412;51.350;17.056;2022-11-03T13:50:57;13.40;56.70
68433;DHT22;55412;51.350;17.056;2022-11-03T13:53:24;13.40;56.80
68433;DHT22;55412;51.350;17.056;2022-11-03T13:55:50;13.30;56.30
68433;DHT22;55412;51.350;17.056;2022-11-03T13:58:16;13.30;56.90
68433;DHT22;55412;51.350;17.056;2022-11-03T14:00:42;13.20;57.20
68433;DHT22;55412;51.350;17.056;2022-11-03T14:03:08;13.20;56.90
68433;DHT22;55412;51.350;17.056;2022-11-03T14:05:34;13.10;57.30
68433;DHT22;55412;51.350;17.056;2022-11-03T14:08:01;13.10;57.20
68433;DHT22;55412;51.350;17.056;2022-11-03T14:10:27;13.00;57.20
68433;DHT22;55412;51.350;17.056;2022-11-03T14:12:53;13.00;57.30
68433;DHT22;55412;51.350;17.056;2022-11-03T14:15:19;12.90;57.80
68433;DHT22;55412;51.350;17.056;2022-11-03T14:17:45;12.80;57.70
68433;DHT22;55412;51.350;17.056;2022-11-03T14:20:11;12.80;57.80
68433;DHT22;55412;51.350;17.056;2022-11-03T14:22:38;12.80;58.00
68433;DHT22;55412;51.350;17.056;2022-11-03T14:25:05;12.70;58.20
68433;DHT22;55412;51.350;17.056;2022-11-03T14:27:32;12.70;58.10
68433;DHT22;55412;51.350;17.056;2022-11-03T14:29:58;12.70;58.10
68433;DHT22;55412;51.350;17.056;2022-11-03T14:32:24;12.70;58.40
68433;DHT22;55412;51.350;17.056;2022-11-03T14:34:50;12.70;58.20
68433;DHT22;55412;51.350;17.056;2022-11-03T14:37:16;12.70;58.60
68433;DHT22;55412;51.350;17.056;2022-11-03T14:39:42;12.70;59.00
68433;DHT22;55412;51.350;17.056;2022-11-03T14:42:11;12.60;59.40
68433;DHT22;55412;51.350;17.056;2022-11-03T14:44:42;12.50;59.90
68433;DHT22;55412;51.350;17.056;2022-11-03T14:47:11;12.40;60.10
68433;DHT22;55412;51.350;17.056;2022-11-03T14:49:39;12.40;60.60
68433;DHT22;55412;51.350;17.056;2022-11-03T14:52:06;12.30;60.70
68433;DHT22;55412;51.350;17.056;2022-11-03T14:54:35;12.30;61.10
68433;DHT22;55412;51.350;17.056;2022-11-03T14:57:02;12.30;61.10
68433;DHT22;55412;51.350;17.056;2022-11-03T14:59:28;12.20;61.30
68433;DHT22;55412;51.350;17.056;2022-11-03T15:01:55;12.10;61.70
68433;DHT22;55412;51.350;17.056;2022-11-03T15:04:22;12.10;61.70
68433;DHT22;55412;51.350;17.056;2022-11-03T15:06:48;12.00;62.00
68433;DHT22;55412;51.350;17.056;2022-11-03T15:09:15;11.90;62.50
68433;DHT22;55412;51.350;17.056;2022-11-03T15:11:45;11.90;62.40
68433;DHT22;55412;51.350;17.056;2022-11-03T15:14:12;11.80;62.50
68433;DHT22;55412;51.350;17.056;2022-11-03T15:16:38;11.80;62.60
68433;DHT22;55412;51.350;17.056;2022-11-03T15:19:06;11.60;62.90
68433;DHT22;55412;51.350;17.056;2022-11-03T15:21:32;11.50;63.20
68433;DHT22;55412;51.350;17.056;2022-11-03T15:23:59;11.40;63.40
68433;DHT22;55412;51.350;17.056;2022-11-03T15:26:25;11.40;63.60
68433;DHT22;55412;51.350;17.056;2022-11-03T15:28:51;11.40;63.70
68433;DHT22;55412;51.350;17.056;2022-11-03T15:31:18;11.30;64.00
68433;DHT22;55412;51.350;17.056;2022-11-03T15:33:56;11.20;64.20
68433;DHT22;55412;51.350;17.056;2022-11-03T15:36:22;11.10;64.50
68433;DHT22;55412;51.350;17.056;2022-11-03T15:38:48;11.00;64.50
68433;DHT22;55412;51.350;17.056;2022-11-03T15:41:14;11.00;64.60
68433;DHT22;55412;51.350;17.056;2022-11-03T15:43:45;10.90;64.80
68433;DHT22;55412;51.350;17.056;2022-11-03T15:46:13;10.80;65.00
68433;DHT22;55412;51.350;17.056;2022-11-03T15:48:40;10.80;65.10
68433;DHT22;55412;51.350;17.056;2022-11-03T15:51:07;10.70;65.20
68433;DHT22;55412;51.350;17.056;2022-11-03T15:53:34;10.70;65.20
68433;DHT22;55412;51.350;17.056;2022-11-03T15:56:00;10.70;65.30
68433;DHT22;55412;51.350;17.056;2022-11-03T15:58:26;10.60;65.80
68433;DHT22;55412;51.350;17.056;2022-11-03T16:00:52;10.60;65.40
68433;DHT22;55412;51.350;17.056;2022-11-03T16:03:18;10.60;65.50
68433;DHT22;55412;51.350;17.056;2022-11-03T16:05:44;10.50;66.20
68433;DHT22;55412;51.350;17.056;2022-11-03T16:08:10;10.50;65.80
68433;DHT22;55412;51.350;17.056;2022-11-03T16:10:36;10.50;65.90
68433;DHT22;55412;51.350;17.056;2022-11-03T16:13:02;10.40;66.00
68433;DHT22;55412;51.350;17.056;2022-11-03T16:15:28;10.50;65.80
68433;DHT22;55412;51.350;17.056;2022-11-03T16:17:55;10.50;65.70
68433;DHT22;55412;51.350;17.056;2022-11-03T16:20:28;10.50;65.60
68433;DHT22;55412;51.350;17.056;2022-11-03T16:22:55;10.50;65.60
68433;DHT22;55412;51.350;17.056;2022-11-03T16:25:21;10.40;65.70
68433;DHT22;55412;51.350;17.056;2022-11-03T16:27:47;10.40;65.90
68433;DHT22;55412;51.350;17.056;2022-11-03T16:30:13;10.30;65.90
68433;DHT22;55412;51.350;17.056;2022-11-03T16:32:39;10.30;66.20
68433;DHT22;55412;51.350;17.056;2022-11-03T16:35:06;10.30;66.20
68433;DHT22;55412;51.350;17.056;2022-11-03T16:37:32;10.30;66.10
68433;DHT22;55412;51.350;17.056;2022-11-03T16:39:58;10.30;66.00